Time,TemperatureF,DewpointF,PressureIn,WindDirection,WindDirectionDegrees,WindSpeedMPH,WindSpeedGustMPH,Humidity,HourlyPrecipIn,Conditions,Clouds,dailyrainin,SoftwareType,DateUTC
2013-11-27 00:22:00,16.0,8.0,-100.00,SSE,155,7.0,13.0,69,0.00,,,-99.99,,2013-11-27 06:22:00,
2013-11-27 00:42:00,15.0,8.0,-100.00,NNE,15,11.0,14.0,71,0.00,,,-99.99,,2013-11-27 06:42:00,
2013-11-27 01:42:00,14.0,8.0,-100.00,South,190,7.0,10.0,76,0.00,,,-99.99,,2013-11-27 07:42:00,
2013-11-27 02:43:00,13.0,8.0,-100.00,East,100,7.0,10.0,80,0.00,,,-99.99,,2013-11-27 08:43:00,
2013-11-27 03:43:00,12.0,8.0,-100.00,SE,125,4.0,7.0,82,0.00,,,-99.99,,2013-11-27 09:43:00,
2013-11-27 04:42:00,11.0,7.0,-100.00,ESE,115,5.0,8.0,85,0.00,,,-99.99,,2013-11-27 10:42:00,
2013-11-27 06:21:00,9.0,7.0,-100.00,NNE,30,6.0,7.0,88,0.00,,,-99.99,,2013-11-27 12:21:00,
2013-11-27 07:11:00,9.0,7.0,-100.00,NNE,15,3.0,6.0,89,0.00,,,-99.99,,2013-11-27 13:11:00,
2013-11-27 07:22:00,9.0,7.0,-100.00,SSE,165,2.0,4.0,89,0.00,,,-99.99,,2013-11-27 13:22:00,
2013-11-27 10:43:00,20.0,11.0,-100.00,NW,325,1.0,4.0,66,0.00,,,-99.99,,2013-11-27 16:43:00,
2013-11-27 11:22:00,22.0,10.0,-100.00,East,100,1.0,6.0,60,0.00,,,-99.99,,2013-11-27 17:22:00,
2013-11-27 11:42:00,22.0,10.0,-100.00,SE,130,4.0,6.0,59,0.00,,,-99.99,,2013-11-27 17:42:00,
2013-11-27 14:22:00,27.0,11.0,-100.00,East,100,7.0,11.0,50,0.00,,,-99.99,,2013-11-27 20:22:00,
2013-11-27 14:42:00,28.0,11.0,-100.00,ESE,115,10.0,13.0,48,0.00,,,-99.99,,2013-11-27 20:42:00,
2013-11-27 15:22:00,29.0,11.0,-100.00,SE,130,7.0,12.0,47,0.00,,,-99.99,,2013-11-27 21:22:00,
2013-11-27 15:43:00,29.0,11.0,-100.00,ESE,115,9.0,14.0,47,0.00,,,-99.99,,2013-11-27 21:43:00,
2013-11-27 18:21:00,26.0,12.0,-100.00,ESE,105,8.0,16.0,53,0.00,,,-99.99,,2013-11-28 00:21:00,
2013-11-27 18:42:00,26.0,12.0,-100.00,ESE,115,7.0,12.0,54,0.00,,,-99.99,,2013-11-28 00:42:00,
2013-11-27 19:22:00,26.0,12.0,-100.00,ESE,105,8.0,17.0,55,0.00,,,-99.99,,2013-11-28 01:22:00,
2013-11-27 19:42:00,26.0,12.0,-100.00,East,100,8.0,20.0,54,0.00,,,-99.99,,2013-11-28 01:42:00,
2013-11-27 21:21:00,27.0,13.0,-100.00,SE,125,7.0,10.0,54,0.00,,,-99.99,,2013-11-28 03:21:00,
2013-11-27 22:42:00,28.0,14.0,-100.00,ESE,110,6.0,13.0,54,0.00,,,-99.99,,2013-11-28 04:42:00,